Naples, FL (34101)

7:50 AM EST on February 14, 2016 (GMT -0500)
Lakewood | | Change Station
CLOSE
Current Station
Personal Weather Station
Location: Naples, FL
Elevation: 20 ft
Nearby Weather Stations

Elev 20 ft 26.14 °N, 81.75 °W | Updated 15 seconds ago

Clear
Clear
51.8 °F
Feels Like 51.8 °F
N
0.0
Wind Variable Wind from SSE
Gusts 0.0 mph

Today
High -- | Low -- °F
--% Chance of Precip.
Yesterday
High -- | Low -- °F
Precip. -- in
Pressure 30.20 in
Visibility 10.0 miles
Clouds Clear
Dew Point 45 °F
Humidity 78%
Rainfall 0.00 in
Snow Depth Not available.
7:03 AM 6:19 PM
Waxing Crescent, 41% visible
METAR KAPF 141153Z 04008KT 10SM CLR 11/06 A3021 RMK AO2 SLP227 T01060061 10128 20106 53009
Pressure 30.20 in
Visibility 10.0 miles
Clouds Clear
Dew Point 45 °F
Humidity 78%
Rainfall 0.00 in
Snow Depth Not available.
7:03 AM 6:19 PM
Waxing Crescent, 41% visible
METAR KAPF 141153Z 04008KT 10SM CLR 11/06 A3021 RMK AO2 SLP227 T01060061 10128 20106 53009

10-Day Weather Forecast

Almanac

Astronomy

Feb. 14, 2016 Rise Set
Actual Time
Civil Twilight
Nautical Twilight
Astronomical Twilight
Moon
Length of Visible Light
Length of Day
Tomorrow will be .
, % of the Moon is Illuminated

Today's Extremes

State Highs State Lows

Community

WunderPhotos

Upload Photos

1,892,775 photos uploaded!

WunderBlog® & News

Nearby

Air Quality

  Air Quality AQ Index Pollutant
Not available.

Snow Depth

Station Depth Elevation

Earthquake Activity

City Distance Mag. Time & Date
Minimum magnitude displayed is 2.5.

Coastal Water Temperatures

Place Temperature

Stations

Nearby Weather Stations

Station Location Temp. Windchill Dew Point Humidity Wind Precip. Elev Updated Type
                   

Watches & Warnings

There are currently no watches in effect.